Terminal Aerodrome Forecast
Issued by NWS Nashville, TN

Home | Current Version | Previous Version | Text Only | Print | Product List | Glossary On
Versions: 1 2 3 4 5 6 7 8 9 10 11 12 13 14 15 16 17 18 19 20 21 22 23 24 25 26 27 28 29 30 31 32 33 34 35 36 37 38 39 40 41 42 43 44 45 46 47 48
000
FTUS44 KOHX 161726
TAFCSV
TAF
KCSV 161726Z 1618/1718 17007KT P6SM BKN070
     FM170800 19011KT 5SM -SHRA BR OVC010
     FM171200 20010G15KT 4SM -SHRA BR OVC007
     FM171500 20010G15KT 3SM -SHRA BR OVC004=

USA.gov is the U.S. government's official web portal to all federal, state and local government web resources and services.